PORTS® Data Listing: 9414290 San Francisco, CA

CO-OPS RAW PORTS DATA

************************      PRELIMINARY DATA      ************************** 

     THIS RAW DATA HAS NOT BEEN SUBJECT TO THE NATIONAL OCEAN SERVICE'S        
     QUALITY CONTROL OR QUALITY ASSURANCE PROCEDURES AND DOES NOT MEET         
     THE CRITERIA AND STANDARDS OF OFFICIAL NATIONAL OCEAN SERVICE             
     DATA.  IT IS RELEASED FOR LIMITED PUBLIC USE AS PRELIMINARY DATA TO       
     BE USED ONLY WITH APPROPRIATE CAUTION.                                    

************************      PRELIMINARY DATA      ************************** 


       CD   -   Calendar date
       T    -   Time
       TZ   -   Timezone
       PW   -   Predicted water level (feet above MLLW)
       OW   -   Observed water level (feet above MLLW)
       WS   -   Wind speed (knots)
       WD   -   Wind direction (degrees true)
       WG   -   Wind gust (knots)
       AT   -   Air temperature (degrees farenheit)
       WT   -   Water temperature (degrees farenheit)
       AP   -   Air pressure (millibars)
       SA   -   Salinty (PSU - Practical Salinity Units)
       SG   -   Specific gravity
       RH   -   Relative humidity
       AG   -   Air gap (feet)
       VI   -   Visibility (nautical miles)

       ** NOTE **
       A variable that has its data fields filled with "9"s, indicates that
       data was not collected for that sample period.
       **********


STATION NAME: San Francisco (9414290)
****************************************************************************************************
    CD       T    TZ    PW     OW    WS   WD   WG    AT    WT    AP    SA    SG     RH    AG   VI
****************************************************************************************************
2020/02/22 15:30 PST    0.31   0.60    9  253   18  52.0  54.9 1016.9 -9.9 -9.999 -99.9 -99.99 -9.99
2020/02/22 15:36 PST    0.22   0.51    8  244   14  52.0  54.9 1016.9 -9.9 -9.999 -99.9 -99.99 -9.99
2020/02/22 15:42 PST    0.14   0.39    7  263   14  51.8  54.9 1017.0 -9.9 -9.999 -99.9 -99.99 -9.99
2020/02/22 15:48 PST    0.06   0.29    8  250   20  51.8  54.9 1017.0 -9.9 -9.999 -99.9 -99.99 -9.99
2020/02/22 15:54 PST   -0.01   0.19   10  252   17  51.6  54.9 1017.0 -9.9 -9.999 -99.9 -99.99 -9.99
2020/02/22 16:00 PST   -0.08   0.12    8  252   16  51.8  54.9 1017.1 -9.9 -9.999 -99.9 -99.99 -9.99
2020/02/22 16:06 PST   -0.14   0.06    9  242   15  51.6  54.9 1017.1 -9.9 -9.999 -99.9 -99.99 -9.99
2020/02/22 16:12 PST   -0.19   0.02    9  253   19  51.6  54.9 1017.1 -9.9 -9.999 -99.9 -99.99 -9.99
2020/02/22 16:18 PST   -0.24  -0.02   11  246   17  51.6  54.9 1017.0 -9.9 -9.999 -99.9 -99.99 -9.99
2020/02/22 16:24 PST   -0.28  -0.04   10  261   16  51.6  54.9 1017.1 -9.9 -9.999 -99.9 -99.99 -9.99
2020/02/22 16:30 PST   -0.32  -0.10   10  258   17  51.6  54.9 1017.1 -9.9 -9.999 -99.9 -99.99 -9.99
2020/02/22 16:36 PST   -0.34  -0.12   11  250   16  51.6  54.9 1017.2 -9.9 -9.999 -99.9 -99.99 -9.99
2020/02/22 16:42 PST   -0.37  -0.14   10  251   17  51.6  54.9 1017.3 -9.9 -9.999 -99.9 -99.99 -9.99
2020/02/22 16:48 PST   -0.39  -0.20   11  265   17  51.6  54.9 1017.2 -9.9 -9.999 -99.9 -99.99 -9.99
2020/02/22 16:54 PST   -0.40  -0.26   11  266   18  51.6  54.9 1017.3 -9.9 -9.999 -99.9 -99.99 -9.99
2020/02/22 17:00 PST   -0.40  -0.26   10  255   17  51.8  54.9 1017.3 -9.9 -9.999 -99.9 -99.99 -9.99
2020/02/22 17:06 PST   -0.40  -0.26    9  259   14  51.8  54.9 1017.3 -9.9 -9.999 -99.9 -99.99 -9.99
2020/02/22 17:12 PST   -0.39  -0.24   11  266   19  51.8  54.9 1017.3 -9.9 -9.999 -99.9 -99.99 -9.99
2020/02/22 17:18 PST   -0.38  -0.22    9  258   15  51.8  54.9 1017.4 -9.9 -9.999 -99.9 -99.99 -9.99
2020/02/22 17:24 PST   -0.36  -0.20   12  270   18  51.6  54.9 1017.3 -9.9 -9.999 -99.9 -99.99 -9.99
2020/02/22 17:30 PST   -0.34  -0.23   11  255   17  51.6  55.0 1017.3 -9.9 -9.999 -99.9 -99.99 -9.99
2020/02/22 17:36 PST   -0.31  -0.18   10  278   18  51.6  55.0 1017.3 -9.9 -9.999 -99.9 -99.99 -9.99
2020/02/22 17:42 PST   -0.27  -0.12   11  267   20  51.4  55.0 1017.4 -9.9 -9.999 -99.9 -99.99 -9.99
2020/02/22 17:48 PST   -0.23  -0.10   10  255   19  51.6  55.2 1017.5 -9.9 -9.999 -99.9 -99.99 -9.99
2020/02/22 17:54 PST   -0.19  -0.05    8  258   16  51.6  55.2 1017.5 -9.9 -9.999 -99.9 -99.99 -9.99
2020/02/22 18:00 PST   -0.14  -0.00    7  255   19  51.8  55.2 1017.6 -9.9 -9.999 -99.9 -99.99 -9.99
2020/02/22 18:06 PST   -0.09   0.05    8  263   15  51.6  55.0 1017.6 -9.9 -9.999 -99.9 -99.99 -9.99
2020/02/22 18:12 PST   -0.03   0.10    9  263   19  51.6  55.2 1017.6 -9.9 -9.999 -99.9 -99.99 -9.99
2020/02/22 18:18 PST    0.04   0.16   10  259   18  51.6  55.2 1017.6 -9.9 -9.999 -99.9 -99.99 -9.99
2020/02/22 18:24 PST    0.11   0.21   12  259   18  51.6  55.2 1017.7 -9.9 -9.999 -99.9 -99.99 -9.99
2020/02/22 18:30 PST    0.18   0.27   12  268   18  51.6  55.2 1017.8 -9.9 -9.999 -99.9 -99.99 -9.99
2020/02/22 18:36 PST    0.25   0.34   10  267   18  51.4  55.2 1017.9 -9.9 -9.999 -99.9 -99.99 -9.99
2020/02/22 18:42 PST    0.33   0.42   13  269   18  51.4  55.2 1017.9 -9.9 -9.999 -99.9 -99.99 -9.99
2020/02/22 18:48 PST    0.42   0.55   12  261   19  51.4  55.2 1017.9 -9.9 -9.999 -99.9 -99.99 -9.99
2020/02/22 18:54 PST    0.50   0.61   13  263   18  51.4  55.2 1018.0 -9.9 -9.999 -99.9 -99.99 -9.99
2020/02/22 19:00 PST    0.59   0.71   12  267   18  51.4  55.2 1018.1 -9.9 -9.999 -99.9 -99.99 -9.99
2020/02/22 19:06 PST    0.68   0.82    7  264   14  51.4  55.2 1018.2 -9.9 -9.999 -99.9 -99.99 -9.99
2020/02/22 19:12 PST    0.78   0.92    8  253   16  51.4  55.2 1018.3 -9.9 -9.999 -99.9 -99.99 -9.99
2020/02/22 19:18 PST    0.87   1.03   10  245   14  51.4  55.2 1018.3 -9.9 -9.999 -99.9 -99.99 -9.99
2020/02/22 19:24 PST    0.97   1.16   13  267   19  51.3  55.2 1018.4 -9.9 -9.999 -99.9 -99.99 -9.99
2020/02/22 19:30 PST    1.08   1.27   11  279   18  51.3  55.2 1018.5 -9.9 -9.999 -99.9 -99.99 -9.99
2020/02/22 19:36 PST    1.18   1.41    9  247   19  51.3  55.2 1018.5 -9.9 -9.999 -99.9 -99.99 -9.99
2020/02/22 19:42 PST    1.28   1.51    9  263   15  51.1  55.2 1018.7 -9.9 -9.999 -99.9 -99.99 -9.99
2020/02/22 19:48 PST    1.39   1.64    8  259   15  51.3  55.2 1018.8 -9.9 -9.999 -99.9 -99.99 -9.99
2020/02/22 19:54 PST    1.50   1.77    9  264   18  51.3  55.2 1018.8 -9.9 -9.999 -99.9 -99.99 -9.99
2020/02/22 20:00 PST    1.61   1.86    8  248   16  51.3  55.2 1018.8 -9.9 -9.999 -99.9 -99.99 -9.99
2020/02/22 20:06 PST    1.72   1.97    9  274   18  51.1  55.2 1018.9 -9.9 -9.999 -99.9 -99.99 -9.99
2020/02/22 20:12 PST    1.83   2.08    8  262   15  51.1  55.2 1019.0 -9.9 -9.999 -99.9 -99.99 -9.99
2020/02/22 20:18 PST    1.94   2.18    8  253   14  51.1  55.2 1019.0 -9.9 -9.999 -99.9 -99.99 -9.99
2020/02/22 20:24 PST    2.06   2.26    9  261   15  51.3  55.2 1019.1 -9.9 -9.999 -99.9 -99.99 -9.99
2020/02/22 20:30 PST    2.17   2.38    7  268   17  51.3  55.2 1019.2 -9.9 -9.999 -99.9 -99.99 -9.99
2020/02/22 20:36 PST    2.29   2.51    6  250   17  51.3  55.2 1019.3 -9.9 -9.999 -99.9 -99.99 -9.99
2020/02/22 20:42 PST    2.40   2.59    5  256   11  51.3  55.4 1019.4 -9.9 -9.999 -99.9 -99.99 -9.99
2020/02/22 20:48 PST    2.52   2.69    7  265   15  51.3  55.4 1019.5 -9.9 -9.999 -99.9 -99.99 -9.99
2020/02/22 20:54 PST    2.64   2.85    8  264   11  51.3  55.4 1019.6 -9.9 -9.999 -99.9 -99.99 -9.99
2020/02/22 21:00 PST    2.75   2.94    8  280   13  51.4  55.4 1019.7 -9.9 -9.999 -99.9 -99.99 -9.99
2020/02/22 21:06 PST    2.87   3.05    9  271   13  51.4  55.4 1019.8 -9.9 -9.999 -99.9 -99.99 -9.99
2020/02/22 21:12 PST    2.98   3.16   11  260   16  51.4  55.4 1019.9 -9.9 -9.999 -99.9 -99.99 -9.99
2020/02/22 21:18 PST    3.10   3.29    9  249   16  51.4  55.4 1020.0 -9.9 -9.999 -99.9 -99.99 -9.99
2020/02/22 21:24 PST    3.21   3.39    8  250   14  51.4  55.4 1020.0 -9.9 -9.999 -99.9 -99.99 -9.99
2020/02/22 21:30 PST    3.32   3.51   11  259   15  51.4  55.4 1020.1 -9.9 -9.999 -99.9 -99.99 -9.99
2020/02/22 21:36 PST    3.43   3.64   12  237   15  51.3  55.4 1020.1 -9.9 -9.999 -99.9 -99.99 -9.99
2020/02/22 21:42 PST    3.54   3.75   12  239   16  51.3  55.4 1020.1 -9.9 -9.999 -99.9 -99.99 -9.99
2020/02/22 21:48 PST    3.65   3.82    9  252   17  51.3  55.4 1020.2 -9.9 -9.999 -99.9 -99.99 -9.99
2020/02/22 21:54 PST    3.76   3.91    8  251   13  51.3  55.4 1020.3 -9.9 -9.999 -99.9 -99.99 -9.99
2020/02/22 22:00 PST    3.86   4.00   10  267   12  51.3  55.4 1020.4 -9.9 -9.999 -99.9 -99.99 -9.99
2020/02/22 22:06 PST    3.96   4.06    9  269   14  51.3  55.4 1020.5 -9.9 -9.999 -99.9 -99.99 -9.99
2020/02/22 22:12 PST    4.06   4.16    6  270   10  51.3  55.2 1020.5 -9.9 -9.999 -99.9 -99.99 -9.99
2020/02/22 22:18 PST    4.15   4.24    6  260   10  51.3  55.2 1020.6 -9.9 -9.999 -99.9 -99.99 -9.99
2020/02/22 22:24 PST    4.24   4.33    6  270   11  51.3  55.2 1020.6 -9.9 -9.999 -99.9 -99.99 -9.99
2020/02/22 22:30 PST    4.33   4.39    5  262   10  51.3  55.0 1020.6 -9.9 -9.999 -99.9 -99.99 -9.99
2020/02/22 22:36 PST    4.41   4.44    7  278   10  51.3  55.0 1020.7 -9.9 -9.999 -99.9 -99.99 -9.99
2020/02/22 22:42 PST    4.49   4.50    7  258   10  51.3  55.0 1020.6 -9.9 -9.999 -99.9 -99.99 -9.99
2020/02/22 22:48 PST    4.56   4.57    6  257   11  51.1  55.0 1020.7 -9.9 -9.999 -99.9 -99.99 -9.99
2020/02/22 22:54 PST    4.63   4.66    7  252    9  51.1  55.0 1020.8 -9.9 -9.999 -99.9 -99.99 -9.99
2020/02/22 23:00 PST    4.69   4.73    6  250   11  51.1  55.0 1020.8 -9.9 -9.999 -99.9 -99.99 -9.99
2020/02/22 23:06 PST    4.75   4.76    4  255    8  51.1  55.0 1020.8 -9.9 -9.999 -99.9 -99.99 -9.99
2020/02/22 23:12 PST    4.80   4.82    4  242   10  51.1  55.0 1020.9 -9.9 -9.999 -99.9 -99.99 -9.99
2020/02/22 23:18 PST    4.85   4.85    5  242    9  50.9  55.0 1020.9 -9.9 -9.999 -99.9 -99.99 -9.99
2020/02/22 23:24 PST    4.89   4.89    7  263    9  50.9  55.0 1020.9 -9.9 -9.999 -99.9 -99.99 -9.99
2020/02/22 23:30 PST    4.92   4.90    5  270    9  51.1  55.0 1020.8 -9.9 -9.999 -99.9 -99.99 -9.99
2020/02/22 23:36 PST    4.95   4.92    4  293    6  50.9  55.0 1020.8 -9.9 -9.999 -99.9 -99.99 -9.99
2020/02/22 23:42 PST    4.98   4.94    2  224    6  50.9  55.0 1020.9 -9.9 -9.999 -99.9 -99.99 -9.99
2020/02/22 23:48 PST    4.99   4.95    2  216    3  50.7  55.0 1021.0 -9.9 -9.999 -99.9 -99.99 -9.99
2020/02/22 23:54 PST    5.00   4.95    3  246    5  50.5  55.0 1020.9 -9.9 -9.999 -99.9 -99.99 -9.99
2020/02/23 00:00 PST    5.01   4.99    1  238    4  50.5  55.0 1021.0 -9.9 -9.999 -99.9 -99.99 -9.99
2020/02/23 00:06 PST    5.01   4.98    3  250    6  50.5  55.0 1021.0 -9.9 -9.999 -99.9 -99.99 -9.99
2020/02/23 00:12 PST    5.00   4.96    4  259    6  50.5  55.0 1021.1 -9.9 -9.999 -99.9 -99.99 -9.99
2020/02/23 00:18 PST    4.99   4.94    3  253    6  50.5  55.0 1021.1 -9.9 -9.999 -99.9 -99.99 -9.99
2020/02/23 00:24 PST    4.97   4.91    4  264    8  50.5  55.0 1021.1 -9.9 -9.999 -99.9 -99.99 -9.99
2020/02/23 00:30 PST    4.95   4.92    5  255    9  50.5  55.0 1021.1 -9.9 -9.999 -99.9 -99.99 -9.99
2020/02/23 00:36 PST    4.92   4.92    4  267    8  50.5  55.0 1021.1 -9.9 -9.999 -99.9 -99.99 -9.99
2020/02/23 00:42 PST    4.88   4.92    4  276    6  50.5  55.0 1021.2 -9.9 -9.999 -99.9 -99.99 -9.99
2020/02/23 00:48 PST    4.84   4.90    4  262    9  50.5  55.0 1021.2 -9.9 -9.999 -99.9 -99.99 -9.99
2020/02/23 00:54 PST    4.80   4.83    5  267    9  50.5  55.0 1021.2 -9.9 -9.999 -99.9 -99.99 -9.99
2020/02/23 01:00 PST    4.74   4.77    7  265   10  50.5  55.0 1021.2 -9.9 -9.999 -99.9 -99.99 -9.99
2020/02/23 01:06 PST    4.69   4.72    6  263   12  50.5  55.0 1021.4 -9.9 -9.999 -99.9 -99.99 -9.99
2020/02/23 01:12 PST    4.63   4.69    8  272   13  50.5  55.0 1021.5 -9.9 -9.999 -99.9 -99.99 -9.99
2020/02/23 01:18 PST    4.57   4.63   10  272   15  50.7  54.9 1021.6 -9.9 -9.999 -99.9 -99.99 -9.99
2020/02/23 01:24 PST    4.50   4.54    9  272   14  50.5  54.9 1021.7 -9.9 -9.999 -99.9 -99.99 -9.99
2020/02/23 01:30 PST    4.43   4.46   11  269   20  50.4  54.9 1021.8 -9.9 -9.999 -99.9 -99.99 -9.99
2020/02/23 01:36 PST    4.35   4.39   10  262   22  50.5  54.9 1021.9 -9.9 -9.999 -99.9 -99.99 -9.99
2020/02/23 01:42 PST    4.27   4.30   11  275   20  50.4  54.9 1022.1 -9.9 -9.999 -99.9 -99.99 -9.99
2020/02/23 01:48 PST    4.19   4.22    9  275   17  50.2  54.9 1022.2 -9.9 -9.999 -99.9 -99.99 -9.99
2020/02/23 01:54 PST    4.11   4.14    9  280   15  50.0  54.9 1022.1 -9.9 -9.999 -99.9 -99.99 -9.99
2020/02/23 02:00 PST    4.03   4.08    7  274   14  50.0  54.9 1022.1 -9.9 -9.999 -99.9 -99.99 -9.99
2020/02/23 02:06 PST    3.94   3.98    7  277   14  50.0  54.9 1022.2 -9.9 -9.999 -99.9 -99.99 -9.99
2020/02/23 02:12 PST    3.85   3.87    7  272   11  50.2  54.9 1022.3 -9.9 -9.999 -99.9 -99.99 -9.99
2020/02/23 02:18 PST    3.76   3.77    7  273   12  50.2  54.9 1022.3 -9.9 -9.999 -99.9 -99.99 -9.99
2020/02/23 02:24 PST    3.67   3.69    8  274   13  50.2  54.7 1022.4 -9.9 -9.999 -99.9 -99.99 -9.99
2020/02/23 02:30 PST    3.59   3.60    8  271   11  50.0  54.7 1022.4 -9.9 -9.999 -99.9 -99.99 -9.99
2020/02/23 02:36 PST    3.50   3.51    7  269   12  49.8  54.7 1022.4 -9.9 -9.999 -99.9 -99.99 -9.99
2020/02/23 02:42 PST    3.41   3.40    4  263    9  49.8  54.7 1022.4 -9.9 -9.999 -99.9 -99.99 -9.99
2020/02/23 02:48 PST    3.32   3.29    6  235    8  49.8  54.7 1022.2 -9.9 -9.999 -99.9 -99.99 -9.99
2020/02/23 02:54 PST    3.24   3.21    6  246   14  49.8  54.7 1022.1 -9.9 -9.999 -99.9 -99.99 -9.99
2020/02/23 03:00 PST    3.15   3.11    7  258   16  49.8  54.7 1022.1 -9.9 -9.999 -99.9 -99.99 -9.99
2020/02/23 03:06 PST    3.07   3.02    5  258   12  49.8  54.7 1022.0 -9.9 -9.999 -99.9 -99.99 -9.99
2020/02/23 03:12 PST    2.99   2.94    7  276   14  49.8  54.7 1022.0 -9.9 -9.999 -99.9 -99.99 -9.99
2020/02/23 03:18 PST    2.91   2.84    9  290   13  50.0  54.7 1022.1 -9.9 -9.999 -99.9 -99.99 -9.99
2020/02/23 03:24 PST    2.84   2.75    7  276   14  50.0  54.7 1022.1 -9.9 -9.999 -99.9 -99.99 -9.99
2020/02/23 03:30 PST    2.77   2.68    8  289   14  50.0  54.7 1022.2 -9.9 -9.999 -99.9 -99.99 -9.99
2020/02/23 03:36 PST    2.70   2.58   10  278   14  50.0  54.7 1022.2 -9.9 -9.999 -99.9 -99.99 -9.99
2020/02/23 03:42 PST    2.64   2.47   10  282   14  50.0  54.7 1022.1 -9.9 -9.999 -99.9 -99.99 -9.99
2020/02/23 03:48 PST    2.58   2.40    9  266   14  49.8  54.7 1022.2 -9.9 -9.999 -99.9 -99.99 -9.99
2020/02/23 03:54 PST    2.52   2.32    9  263   13  49.8  54.7 1022.3 -9.9 -9.999 -99.9 -99.99 -9.99
2020/02/23 04:00 PST    2.47   2.29    7  267   15  50.0  54.7 1022.4 -9.9 -9.999 -99.9 -99.99 -9.99
2020/02/23 04:06 PST    2.42   2.27   10  271   15  50.0  54.7 1022.4 -9.9 -9.999 -99.9 -99.99 -9.99
2020/02/23 04:12 PST    2.38   2.22   11  275   18  50.0  54.7 1022.5 -9.9 -9.999 -99.9 -99.99 -9.99
2020/02/23 04:18 PST    2.34   2.23    9  276   15  50.0  54.7 1022.6 -9.9 -9.999 -99.9 -99.99 -9.99
2020/02/23 04:24 PST    2.30   2.23   12  269   19  50.0  54.7 1022.7 -9.9 -9.999 -99.9 -99.99 -9.99
2020/02/23 04:30 PST    2.27   2.20   13  271   20  50.0  54.7 1022.8 -9.9 -9.999 -99.9 -99.99 -9.99
2020/02/23 04:36 PST    2.25   2.19   12  277   19  50.0  54.5 1022.8 -9.9 -9.999 -99.9 -99.99 -9.99
2020/02/23 04:42 PST    2.23   2.13   11  275   20  50.0  54.5 1022.9 -9.9 -9.999 -99.9 -99.99 -9.99
2020/02/23 04:48 PST    2.21   2.13   11  278   16  50.2  54.5 1023.1 -9.9 -9.999 -99.9 -99.99 -9.99
2020/02/23 04:54 PST    2.20   2.12   12  273   19  50.2  54.5 1023.3 -9.9 -9.999 -99.9 -99.99 -9.99
2020/02/23 05:00 PST    2.20   2.10   10  277   17  50.2  54.5 1023.4 -9.9 -9.999 -99.9 -99.99 -9.99
2020/02/23 05:06 PST    2.19   2.11   11  271   17  50.0  54.5 1023.4 -9.9 -9.999 -99.9 -99.99 -9.99
2020/02/23 05:12 PST    2.20   2.10    8  286   14  50.0  54.5 1023.4 -9.9 -9.999 -99.9 -99.99 -9.99
2020/02/23 05:18 PST    2.21   2.09    6  284   15  50.0  54.5 1023.5 -9.9 -9.999 -99.9 -99.99 -9.99
2020/02/23 05:24 PST    2.22   2.13    8  283   11  50.0  54.5 1023.5 -9.9 -9.999 -99.9 -99.99 -9.99
2020/02/23 05:30 PST    2.24   2.14    7  272   12  50.0  54.5 1023.6 -9.9 -9.999 -99.9 -99.99 -9.99
2020/02/23 05:36 PST    2.26   2.20    5  291   12  50.0  54.5 1023.8 -9.9 -9.999 -99.9 -99.99 -9.99
2020/02/23 05:42 PST    2.29   2.20    6  286   10  50.0  54.5 1023.9 -9.9 -9.999 -99.9 -99.99 -9.99
2020/02/23 05:48 PST    2.32   2.23    4  261    8  50.0  54.5 1024.0 -9.9 -9.999 -99.9 -99.99 -9.99
2020/02/23 05:54 PST    2.36   2.28    3  266    9  50.0  54.5 1024.1 -9.9 -9.999 -99.9 -99.99 -9.99
2020/02/23 06:00 PST    2.40   2.29    5  251    8  50.0  54.3 1024.1 -9.9 -9.999 -99.9 -99.99 -9.99
2020/02/23 06:06 PST    2.44   2.33    5  263   12  50.2  54.3 1024.2 -9.9 -9.999 -99.9 -99.99 -9.99
2020/02/23 06:12 PST    2.49   2.40    7  272   10  50.2  54.3 1024.3 -9.9 -9.999 -99.9 -99.99 -9.99
2020/02/23 06:18 PST    2.54   2.49    7  265   15  50.0  54.5 1024.3 -9.9 -9.999 -99.9 -99.99 -9.99
2020/02/23 06:24 PST    2.60   2.56    6  278   13  50.2  54.5 1024.4 -9.9 -9.999 -99.9 -99.99 -9.99
2020/02/23 06:30 PST    2.66   2.60    8  267   11  50.2  54.5 1024.4 -9.9 -9.999 -99.9 -99.99 -9.99
2020/02/23 06:36 PST    2.73   2.69    9  274   12  50.2  54.5 1024.5 -9.9 -9.999 -99.9 -99.99 -9.99
2020/02/23 06:42 PST    2.79   2.77    4  268    8  50.2  54.5 1024.5 -9.9 -9.999 -99.9 -99.99 -9.99
2020/02/23 06:48 PST    2.86   2.87    5  275   10  50.0  54.5 1024.6 -9.9 -9.999 -99.9 -99.99 -9.99
2020/02/23 06:54 PST    2.94   2.93    5  260    9  50.0  54.5 1024.6 -9.9 -9.999 -99.9 -99.99 -9.99
2020/02/23 07:00 PST    3.01   2.99    4  258    9  50.0  54.5 1024.7 -9.9 -9.999 -99.9 -99.99 -9.99
2020/02/23 07:06 PST    3.09   3.05    6  257   10  50.0  54.5 1024.8 -9.9 -9.999 -99.9 -99.99 -9.99
2020/02/23 07:12 PST    3.17   3.09    6  282    9  50.2  54.5 1024.9 -9.9 -9.999 -99.9 -99.99 -9.99
2020/02/23 07:18 PST    3.26   3.19    5  271    9  50.4  54.5 1025.0 -9.9 -9.999 -99.9 -99.99 -9.99
2020/02/23 07:24 PST    3.34   3.31    5  263    9  50.2  54.5 1025.2 -9.9 -9.999 -99.9 -99.99 -9.99
2020/02/23 07:30 PST    3.43   3.38    4  276    9  50.5  54.5 1025.3 -9.9 -9.999 -99.9 -99.99 -9.99
2020/02/23 07:36 PST    3.52   3.47    6  270   10  50.7  54.5 1025.4 -9.9 -9.999 -99.9 -99.99 -9.99
2020/02/23 07:42 PST    3.61   3.56    6  275   10  50.9  54.5 1025.6 -9.9 -9.999 -99.9 -99.99 -9.99
2020/02/23 07:48 PST    3.69   3.66    7  272   10  50.9  54.5 1025.7 -9.9 -9.999 -99.9 -99.99 -9.99
2020/02/23 07:54 PST    3.78   3.76    8  268   12  50.9  54.5 1025.8 -9.9 -9.999 -99.9 -99.99 -9.99
2020/02/23 08:00 PST    3.87   3.86    6  272   10  51.1  54.5 1026.0 -9.9 -9.999 -99.9 -99.99 -9.99
2020/02/23 08:06 PST    3.96   3.96    6  289   10  51.3  54.5 1026.2 -9.9 -9.999 -99.9 -99.99 -9.99
2020/02/23 08:12 PST    4.06   4.02    7  278   11  51.3  54.5 1026.3 -9.9 -9.999 -99.9 -99.99 -9.99
2020/02/23 08:18 PST    4.15   4.10    6  274   10  51.4  54.5 1026.4 -9.9 -9.999 -99.9 -99.99 -9.99
2020/02/23 08:24 PST    4.23   4.20    5  278    7  51.4  54.5 1026.5 -9.9 -9.999 -99.9 -99.99 -9.99
2020/02/23 08:30 PST    4.32   4.28    7  275   11  51.4  54.7 1026.6 -9.9 -9.999 -99.9 -99.99 -9.99
2020/02/23 08:36 PST    4.41   4.38    5  282   10  51.4  54.9 1026.8 -9.9 -9.999 -99.9 -99.99 -9.99
2020/02/23 08:42 PST    4.50   4.45    6  277    9  51.4  54.9 1026.9 -9.9 -9.999 -99.9 -99.99 -9.99
2020/02/23 08:48 PST    4.58   4.53    5  266   10  51.8  54.9 1027.0 -9.9 -9.999 -99.9 -99.99 -9.99
2020/02/23 08:54 PST    4.67   4.61    3  260    7  52.2  54.9 1027.0 -9.9 -9.999 -99.9 -99.99 -9.99
2020/02/23 09:00 PST    4.75   4.68    5  238   10  52.2  54.9 1027.2 -9.9 -9.999 -99.9 -99.99 -9.99
2020/02/23 09:06 PST    4.83   4.74    4  235    8  52.3  54.9 1027.3 -9.9 -9.999 -99.9 -99.99 -9.99
2020/02/23 09:12 PST    4.91   4.80    5  241    9  52.5  54.9 1027.3 -9.9 -9.999 -99.9 -99.99 -9.99
2020/02/23 09:18 PST    4.99 -99.99 -999 -999 -999 -99.9 -99.9 -999.9 -9.9 -9.999 -99.9 -99.99 -9.99
2020/02/23 09:24 PST    5.06 -99.99 -999 -999 -999 -99.9 -99.9 -999.9 -9.9 -9.999 -99.9 -99.99 -9.99
2020/02/23 09:30 PST    5.14 -99.99 -999 -999 -999 -99.9 -99.9 -999.9 -9.9 -9.999 -99.9 -99.99 -9.99
2020/02/23 09:36 PST    5.21 -99.99 -999 -999 -999 -99.9 -99.9 -999.9 -9.9 -9.999 -99.9 -99.99 -9.99
2020/02/23 09:42 PST    5.27 -99.99 -999 -999 -999 -99.9 -99.9 -999.9 -9.9 -9.999 -99.9 -99.99 -9.99
2020/02/23 09:48 PST    5.34 -99.99 -999 -999 -999 -99.9 -99.9 -999.9 -9.9 -9.999 -99.9 -99.99 -9.99
2020/02/23 09:54 PST    5.40 -99.99 -999 -999 -999 -99.9 -99.9 -999.9 -9.9 -9.999 -99.9 -99.99 -9.99
2020/02/23 10:00 PST    5.45 -99.99 -999 -999 -999 -99.9 -99.9 -999.9 -9.9 -9.999 -99.9 -99.99 -9.99
2020/02/23 10:06 PST    5.50 -99.99 -999 -999 -999 -99.9 -99.9 -999.9 -9.9 -9.999 -99.9 -99.99 -9.99
2020/02/23 10:12 PST    5.55 -99.99 -999 -999 -999 -99.9 -99.9 -999.9 -9.9 -9.999 -99.9 -99.99 -9.99
2020/02/23 10:18 PST    5.59 -99.99 -999 -999 -999 -99.9 -99.9 -999.9 -9.9 -9.999 -99.9 -99.99 -9.99
2020/02/23 10:24 PST    5.63 -99.99 -999 -999 -999 -99.9 -99.9 -999.9 -9.9 -9.999 -99.9 -99.99 -9.99
2020/02/23 10:30 PST    5.67 -99.99 -999 -999 -999 -99.9 -99.9 -999.9 -9.9 -9.999 -99.9 -99.99 -9.99
2020/02/23 10:36 PST    5.70 -99.99 -999 -999 -999 -99.9 -99.9 -999.9 -9.9 -9.999 -99.9 -99.99 -9.99
2020/02/23 10:42 PST    5.72 -99.99 -999 -999 -999 -99.9 -99.9 -999.9 -9.9 -9.999 -99.9 -99.99 -9.99
2020/02/23 10:48 PST    5.74 -99.99 -999 -999 -999 -99.9 -99.9 -999.9 -9.9 -9.999 -99.9 -99.99 -9.99
2020/02/23 10:54 PST    5.75 -99.99 -999 -999 -999 -99.9 -99.9 -999.9 -9.9 -9.999 -99.9 -99.99 -9.99
2020/02/23 11:00 PST    5.76 -99.99 -999 -999 -999 -99.9 -99.9 -999.9 -9.9 -9.999 -99.9 -99.99 -9.99
2020/02/23 11:06 PST    5.76 -99.99 -999 -999 -999 -99.9 -99.9 -999.9 -9.9 -9.999 -99.9 -99.99 -9.99
2020/02/23 11:12 PST    5.75 -99.99 -999 -999 -999 -99.9 -99.9 -999.9 -9.9 -9.999 -99.9 -99.99 -9.99
2020/02/23 11:18 PST    5.74 -99.99 -999 -999 -999 -99.9 -99.9 -999.9 -9.9 -9.999 -99.9 -99.99 -9.99
2020/02/23 11:24 PST    5.72 -99.99 -999 -999 -999 -99.9 -99.9 -999.9 -9.9 -9.999 -99.9 -99.99 -9.99
2020/02/23 11:30 PST    5.69 -99.99 -999 -999 -999 -99.9 -99.9 -999.9 -9.9 -9.999 -99.9 -99.99 -9.99
2020/02/23 11:36 PST    5.66 -99.99 -999 -999 -999 -99.9 -99.9 -999.9 -9.9 -9.999 -99.9 -99.99 -9.99
2020/02/23 11:42 PST    5.62 -99.99 -999 -999 -999 -99.9 -99.9 -999.9 -9.9 -9.999 -99.9 -99.99 -9.99
2020/02/23 11:48 PST    5.57 -99.99 -999 -999 -999 -99.9 -99.9 -999.9 -9.9 -9.999 -99.9 -99.99 -9.99
2020/02/23 11:54 PST    5.52 -99.99 -999 -999 -999 -99.9 -99.9 -999.9 -9.9 -9.999 -99.9 -99.99 -9.99
2020/02/23 12:00 PST    5.46 -99.99 -999 -999 -999 -99.9 -99.9 -999.9 -9.9 -9.999 -99.9 -99.99 -9.99
2020/02/23 12:06 PST    5.40 -99.99 -999 -999 -999 -99.9 -99.9 -999.9 -9.9 -9.999 -99.9 -99.99 -9.99
2020/02/23 12:12 PST    5.33 -99.99 -999 -999 -999 -99.9 -99.9 -999.9 -9.9 -9.999 -99.9 -99.99 -9.99
2020/02/23 12:18 PST    5.25 -99.99 -999 -999 -999 -99.9 -99.9 -999.9 -9.9 -9.999 -99.9 -99.99 -9.99
2020/02/23 12:24 PST    5.16 -99.99 -999 -999 -999 -99.9 -99.9 -999.9 -9.9 -9.999 -99.9 -99.99 -9.99
2020/02/23 12:30 PST    5.07 -99.99 -999 -999 -999 -99.9 -99.9 -999.9 -9.9 -9.999 -99.9 -99.99 -9.99
2020/02/23 12:36 PST    4.98 -99.99 -999 -999 -999 -99.9 -99.9 -999.9 -9.9 -9.999 -99.9 -99.99 -9.99
2020/02/23 12:42 PST    4.87 -99.99 -999 -999 -999 -99.9 -99.9 -999.9 -9.9 -9.999 -99.9 -99.99 -9.99
2020/02/23 12:48 PST    4.77 -99.99 -999 -999 -999 -99.9 -99.9 -999.9 -9.9 -9.999 -99.9 -99.99 -9.99
2020/02/23 12:54 PST    4.66 -99.99 -999 -999 -999 -99.9 -99.9 -999.9 -9.9 -9.999 -99.9 -99.99 -9.99
2020/02/23 13:00 PST    4.54 -99.99 -999 -999 -999 -99.9 -99.9 -999.9 -9.9 -9.999 -99.9 -99.99 -9.99
2020/02/23 13:06 PST    4.42 -99.99 -999 -999 -999 -99.9 -99.9 -999.9 -9.9 -9.999 -99.9 -99.99 -9.99
2020/02/23 13:12 PST    4.29 -99.99 -999 -999 -999 -99.9 -99.9 -999.9 -9.9 -9.999 -99.9 -99.99 -9.99
2020/02/23 13:18 PST    4.16 -99.99 -999 -999 -999 -99.9 -99.9 -999.9 -9.9 -9.999 -99.9 -99.99 -9.99
2020/02/23 13:24 PST    4.02 -99.99 -999 -999 -999 -99.9 -99.9 -999.9 -9.9 -9.999 -99.9 -99.99 -9.99
2020/02/23 13:30 PST    3.89 -99.99 -999 -999 -999 -99.9 -99.9 -999.9 -9.9 -9.999 -99.9 -99.99 -9.99
2020/02/23 13:36 PST    3.75 -99.99 -999 -999 -999 -99.9 -99.9 -999.9 -9.9 -9.999 -99.9 -99.99 -9.99
2020/02/23 13:42 PST    3.60 -99.99 -999 -999 -999 -99.9 -99.9 -999.9 -9.9 -9.999 -99.9 -99.99 -9.99
2020/02/23 13:48 PST    3.46 -99.99 -999 -999 -999 -99.9 -99.9 -999.9 -9.9 -9.999 -99.9 -99.99 -9.99
2020/02/23 13:54 PST    3.31 -99.99 -999 -999 -999 -99.9 -99.9 -999.9 -9.9 -9.999 -99.9 -99.99 -9.99
2020/02/23 14:00 PST    3.16 -99.99 -999 -999 -999 -99.9 -99.9 -999.9 -9.9 -9.999 -99.9 -99.99 -9.99
2020/02/23 14:06 PST    3.01 -99.99 -999 -999 -999 -99.9 -99.9 -999.9 -9.9 -9.999 -99.9 -99.99 -9.99
2020/02/23 14:12 PST    2.86 -99.99 -999 -999 -999 -99.9 -99.9 -999.9 -9.9 -9.999 -99.9 -99.99 -9.99
2020/02/23 14:18 PST    2.71 -99.99 -999 -999 -999 -99.9 -99.9 -999.9 -9.9 -9.999 -99.9 -99.99 -9.99
2020/02/23 14:24 PST    2.56 -99.99 -999 -999 -999 -99.9 -99.9 -999.9 -9.9 -9.999 -99.9 -99.99 -9.99
2020/02/23 14:30 PST    2.41 -99.99 -999 -999 -999 -99.9 -99.9 -999.9 -9.9 -9.999 -99.9 -99.99 -9.99
2020/02/23 14:36 PST    2.26 -99.99 -999 -999 -999 -99.9 -99.9 -999.9 -9.9 -9.999 -99.9 -99.99 -9.99
2020/02/23 14:42 PST    2.12 -99.99 -999 -999 -999 -99.9 -99.9 -999.9 -9.9 -9.999 -99.9 -99.99 -9.99
2020/02/23 14:48 PST    1.97 -99.99 -999 -999 -999 -99.9 -99.9 -999.9 -9.9 -9.999 -99.9 -99.99 -9.99
2020/02/23 14:54 PST    1.83 -99.99 -999 -999 -999 -99.9 -99.9 -999.9 -9.9 -9.999 -99.9 -99.99 -9.99
2020/02/23 15:00 PST    1.69 -99.99 -999 -999 -999 -99.9 -99.9 -999.9 -9.9 -9.999 -99.9 -99.99 -9.99
2020/02/23 15:06 PST    1.55 -99.99 -999 -999 -999 -99.9 -99.9 -999.9 -9.9 -9.999 -99.9 -99.99 -9.99
2020/02/23 15:12 PST    1.41 -99.99 -999 -999 -999 -99.9 -99.9 -999.9 -9.9 -9.999 -99.9 -99.99 -9.99
2020/02/23 15:18 PST    1.28 -99.99 -999 -999 -999 -99.9 -99.9 -999.9 -9.9 -9.999 -99.9 -99.99 -9.99
2020/02/23 15:24 PST    1.16 -99.99 -999 -999 -999 -99.9 -99.9 -999.9 -9.9 -9.999 -99.9 -99.99 -9.99
2020/02/23 15:30 PST    1.03 -99.99 -999 -999 -999 -99.9 -99.9 -999.9 -9.9 -9.999 -99.9 -99.99 -9.99